createdAt,value
2022-10-14T00:00:52.462Z,95410.66
2022-10-14T00:03:19.166Z,95426.03
2022-10-14T00:05:46.299Z,95420.50
2022-10-14T00:08:15.216Z,95420.09
2022-10-14T00:10:42.119Z,95405.31
2022-10-14T00:13:09.313Z,95417.22
2022-10-14T00:15:40.990Z,95410.94
2022-10-14T00:18:10.376Z,95411.03
2022-10-14T00:20:37.348Z,95399.44
2022-10-14T00:23:04.198Z,95404.34
2022-10-14T00:25:31.245Z,95405.56
2022-10-14T00:27:58.121Z,95394.13
2022-10-14T00:30:25.105Z,95394.72
2022-10-14T00:32:51.978Z,95406.63
2022-10-14T00:35:19.041Z,95401.25
2022-10-14T00:37:46.174Z,95405.41
2022-10-14T00:40:13.128Z,95409.22
2022-10-14T00:42:39.992Z,95406.72
2022-10-14T00:45:21.829Z,95408.72
2022-10-14T00:47:51.380Z,95406.53
2022-10-14T00:50:20.787Z,95412.03
2022-10-14T00:52:47.887Z,95406.75
2022-10-14T00:55:17.924Z,95399.44
2022-10-14T00:57:45.282Z,95394.13
2022-10-14T01:00:19.199Z,95393.00
2022-10-14T01:02:47.877Z,95368.28
2022-10-14T01:05:17.935Z,95381.00
2022-10-14T01:08:09.023Z,95390.97
2022-10-14T01:11:11.620Z,95376.06
2022-10-14T01:13:48.215Z,95378.78
2022-10-14T01:16:54.240Z,95370.34
2022-10-14T01:19:45.852Z,95374.09
2022-10-14T01:22:27.370Z,95361.09
2022-10-14T01:25:19.144Z,95365.72
2022-10-14T01:28:03.219Z,95355.69
2022-10-14T01:30:34.661Z,95359.91
2022-10-14T01:33:11.565Z,95358.94
2022-10-14T01:36:08.659Z,95357.97
2022-10-14T01:38:41.607Z,95362.78
2022-10-14T01:41:22.866Z,95355.81
2022-10-14T01:43:51.805Z,95351.56
2022-10-14T01:46:22.079Z,95351.84
2022-10-14T01:48:53.567Z,95358.09
2022-10-14T01:51:26.962Z,95348.53
2022-10-14T01:53:58.976Z,95341.84
2022-10-14T01:56:28.643Z,95353.03
2022-10-14T01:58:59.749Z,95347.63
2022-10-14T02:01:27.129Z,95349.34
2022-10-14T02:03:54.279Z,95350.91
2022-10-14T02:06:43.425Z,95325.84
2022-10-14T02:09:25.605Z,95357.44
2022-10-14T02:12:23.142Z,95364.19
2022-10-14T02:15:14.849Z,95356.09
2022-10-14T02:17:51.245Z,95352.50
2022-10-14T02:20:24.442Z,95340.75
2022-10-14T02:23:20.553Z,95352.66
2022-10-14T02:25:49.426Z,95349.69
2022-10-14T02:28:21.381Z,95349.13
2022-10-14T02:30:53.484Z,95338.59
2022-10-14T02:33:26.913Z,95332.59
2022-10-14T02:35:55.995Z,95335.19
2022-10-14T02:38:25.648Z,95338.75
2022-10-14T02:40:53.888Z,95334.94
2022-10-14T02:43:20.751Z,95332.69
2022-10-14T02:45:47.496Z,95324.38
2022-10-14T02:48:14.295Z,95320.28
2022-10-14T02:50:42.276Z,95326.00
2022-10-14T02:53:14.259Z,95329.56
2022-10-14T02:55:44.064Z,95317.28
2022-10-14T02:58:10.813Z,95320.94
2022-10-14T03:00:37.747Z,95332.94
2022-10-14T03:03:06.323Z,95329.91
2022-10-14T03:05:33.220Z,95327.06
2022-10-14T03:08:01.618Z,95323.78
2022-10-14T03:10:29.930Z,95326.69
2022-10-14T03:12:57.806Z,95310.28
2022-10-14T03:15:34.285Z,95312.22
2022-10-14T03:18:01.199Z,95322.09
2022-10-14T03:20:37.807Z,95317.16
2022-10-14T03:23:07.044Z,95320.94
2022-10-14T03:25:36.798Z,95322.50
2022-10-14T03:28:14.814Z,95315.72
2022-10-14T03:31:02.040Z,95317.94
2022-10-14T03:34:07.378Z,95318.06
2022-10-14T03:36:36.749Z,95315.31
2022-10-14T03:39:05.195Z,95324.38
2022-10-14T03:41:37.772Z,95329.63
2022-10-14T03:44:06.464Z,95319.56
2022-10-14T03:46:35.220Z,95327.72
2022-10-14T03:49:03.220Z,95320.19
2022-10-14T03:51:29.969Z,95311.94
2022-10-14T03:54:07.667Z,95313.34
2022-10-14T03:56:35.451Z,95318.38
2022-10-14T03:59:02.862Z,95316.22
2022-10-14T04:01:29.845Z,95319.06
2022-10-14T04:04:19.340Z,95314.63
2022-10-14T04:06:47.137Z,95316.34
2022-10-14T04:09:16.268Z,95316.63
2022-10-14T04:11:43.386Z,95315.34
2022-10-14T04:14:24.960Z,95316.34
2022-10-14T04:16:51.948Z,95313.75
2022-10-14T04:19:20.116Z,95310.97
2022-10-14T04:21:47.304Z,95304.88
2022-10-14T04:24:15.887Z,95296.94
2022-10-14T04:26:52.304Z,95299.41
2022-10-14T04:29:45.509Z,95297.84
2022-10-14T04:32:22.651Z,95291.66
2022-10-14T04:34:50.023Z,95294.59
2022-10-14T04:37:20.389Z,95298.88
2022-10-14T04:39:54.479Z,95299.06
2022-10-14T04:42:22.190Z,95284.91
2022-10-14T04:44:52.765Z,95286.47
2022-10-14T04:47:26.366Z,95289.28
2022-10-14T04:49:58.430Z,95292.72
2022-10-14T04:52:27.897Z,95281.84
2022-10-14T04:55:01.023Z,95279.53
2022-10-14T04:57:40.506Z,95274.31
2022-10-14T05:00:08.126Z,95285.38
2022-10-14T05:02:44.991Z,95278.41
2022-10-14T05:05:14.965Z,95277.91
2022-10-14T05:07:44.003Z,95283.25
2022-10-14T05:10:22.613Z,95282.66
2022-10-14T05:12:50.114Z,95275.75
2022-10-14T05:15:18.432Z,95273.81
2022-10-14T05:17:55.519Z,95273.56
2022-10-14T05:20:29.038Z,95273.69
2022-10-14T05:22:57.768Z,95271.84
2022-10-14T05:25:24.955Z,95278.25
2022-10-14T05:27:53.748Z,95281.25
2022-10-14T05:30:21.212Z,95278.50
2022-10-14T05:32:53.028Z,95269.53
2022-10-14T05:35:39.879Z,95256.28
2022-10-14T05:38:08.545Z,95287.94
2022-10-14T05:40:39.390Z,95265.09
2022-10-14T05:43:06.789Z,95272.03
2022-10-14T05:45:36.261Z,95286.59
2022-10-14T05:48:03.160Z,95281.63
2022-10-14T05:50:30.173Z,95296.25
2022-10-14T05:53:01.890Z,95293.63
2022-10-14T05:55:38.180Z,95297.47
2022-10-14T05:58:05.242Z,95304.75
2022-10-14T06:00:37.445Z,95304.88
2022-10-14T06:03:11.942Z,95308.88
2022-10-14T06:05:40.210Z,95314.59
2022-10-14T06:08:08.979Z,95312.97
2022-10-14T06:10:38.276Z,95305.19
2022-10-14T06:13:05.286Z,95305.38
2022-10-14T06:15:36.393Z,95305.41
2022-10-14T06:18:03.841Z,95306.78
2022-10-14T06:20:31.713Z,95316.81
2022-10-14T06:23:02.407Z,95314.69
2022-10-14T06:25:30.256Z,95311.22
2022-10-14T06:28:03.784Z,95303.22
2022-10-14T06:30:31.435Z,95322.91
2022-10-14T06:32:58.283Z,95313.19
2022-10-14T06:35:25.118Z,95305.06
2022-10-14T06:37:52.047Z,95321.72
2022-10-14T06:40:19.002Z,95330.19
2022-10-14T06:42:45.853Z,95320.94
2022-10-14T06:45:12.893Z,95324.63
2022-10-14T06:47:39.698Z,95321.19
2022-10-14T06:50:07.233Z,95318.44
2022-10-14T06:52:34.027Z,95327.28
2022-10-14T06:55:01.172Z,95308.94
2022-10-14T06:57:27.800Z,95315.16
2022-10-14T06:59:54.556Z,95318.38
2022-10-14T07:02:21.647Z,95327.41
2022-10-14T07:04:48.688Z,95321.97
2022-10-14T07:07:15.654Z,95318.19
2022-10-14T07:09:42.448Z,95309.78
2022-10-14T07:12:09.178Z,95316.56
2022-10-14T07:14:36.082Z,95322.69
2022-10-14T07:17:02.982Z,95312.34
2022-10-14T07:19:29.757Z,95316.56
2022-10-14T07:21:56.514Z,95309.56
2022-10-14T07:24:23.404Z,95314.91
2022-10-14T07:26:50.141Z,95310.75
2022-10-14T07:29:17.326Z,95318.06
2022-10-14T07:31:44.203Z,95316.47
2022-10-14T07:34:10.941Z,95308.31
2022-10-14T07:36:37.819Z,95309.75
2022-10-14T07:39:05.892Z,95318.03
2022-10-14T07:41:33.671Z,95296.00
2022-10-14T07:44:06.110Z,95296.22
2022-10-14T07:46:35.265Z,95309.81
2022-10-14T07:49:05.991Z,95307.22
2022-10-14T07:51:33.677Z,95309.09
2022-10-14T07:54:02.313Z,95310.06
2022-10-14T07:56:30.279Z,95307.53
2022-10-14T07:58:58.516Z,95306.78
2022-10-14T08:01:25.523Z,95300.13
2022-10-14T08:03:52.403Z,95309.19
2022-10-14T08:06:19.551Z,95313.09
2022-10-14T08:08:46.601Z,95302.25
2022-10-14T08:11:22.431Z,95301.13
2022-10-14T08:13:50.084Z,95308.13
2022-10-14T08:16:28.507Z,95302.09
2022-10-14T08:18:57.825Z,95300.50
2022-10-14T08:21:25.351Z,95285.59
2022-10-14T08:23:53.009Z,95312.91
2022-10-14T08:26:26.890Z,95310.66
2022-10-14T08:28:54.088Z,95306.44
2022-10-14T08:31:21.203Z,95312.25
2022-10-14T08:33:48.282Z,95304.59
2022-10-14T08:36:16.061Z,95307.25
2022-10-14T08:38:42.888Z,95314.22
2022-10-14T08:41:12.785Z,95304.97
2022-10-14T08:44:16.970Z,95306.97
2022-10-14T08:46:52.479Z,95313.25
2022-10-14T08:49:26.164Z,95306.13
2022-10-14T08:51:59.371Z,95315.28
2022-10-14T08:54:40.558Z,95316.41
2022-10-14T08:57:21.085Z,95308.41
2022-10-14T08:59:48.817Z,95310.88
2022-10-14T09:02:24.741Z,95313.97
2022-10-14T09:04:51.619Z,95305.41
2022-10-14T09:07:20.736Z,95308.16
2022-10-14T09:09:56.882Z,95300.78
2022-10-14T09:12:29.794Z,95304.34
2022-10-14T09:15:07.959Z,95306.84
2022-10-14T09:17:40.667Z,95303.31
2022-10-14T09:20:16.501Z,95299.22
2022-10-14T09:22:43.504Z,95306.94
2022-10-14T09:25:15.711Z,95304.53
2022-10-14T09:27:43.007Z,95302.78
2022-10-14T09:30:16.030Z,95292.78
2022-10-14T09:32:46.629Z,95293.53
2022-10-14T09:35:25.266Z,95300.41
2022-10-14T09:37:53.462Z,95292.06
2022-10-14T09:40:35.577Z,95284.63
2022-10-14T09:43:10.506Z,95302.34
2022-10-14T09:45:46.446Z,95292.59
2022-10-14T09:48:33.860Z,95289.19
2022-10-14T09:51:03.110Z,95289.88
2022-10-14T09:53:38.532Z,95289.91
2022-10-14T09:56:08.096Z,95283.78
2022-10-14T09:58:53.915Z,95283.41
2022-10-14T10:01:23.432Z,95286.41
2022-10-14T10:03:52.511Z,95280.78
2022-10-14T10:06:23.483Z,95275.59
2022-10-14T10:08:53.557Z,95280.75
2022-10-14T10:11:33.421Z,95286.88
2022-10-14T10:14:21.000Z,95267.28
2022-10-14T10:16:48.581Z,95273.69
2022-10-14T10:19:29.070Z,95280.41
2022-10-14T10:22:29.493Z,95276.53
2022-10-14T10:25:01.900Z,95256.13
2022-10-14T10:27:36.649Z,95266.16
2022-10-14T10:30:24.713Z,95272.00
2022-10-14T10:33:08.167Z,95260.69
2022-10-14T10:36:06.469Z,95255.31
2022-10-14T10:39:07.908Z,95248.59
2022-10-14T10:41:40.889Z,95243.38
2022-10-14T10:44:07.721Z,95252.38
2022-10-14T10:46:55.793Z,95252.38
2022-10-14T10:49:42.420Z,95240.13
2022-10-14T10:52:41.187Z,95234.81
2022-10-14T10:55:18.397Z,95236.50
2022-10-14T10:57:57.073Z,95235.31
2022-10-14T11:03:27.850Z,95232.28
2022-10-14T11:06:46.994Z,95231.44
2022-10-14T11:09:43.696Z,95223.00
2022-10-14T11:12:28.456Z,95216.63
2022-10-14T11:15:01.290Z,95204.63
2022-10-14T11:17:46.605Z,95215.13
2022-10-14T11:20:22.720Z,95204.69
2022-10-14T11:23:19.045Z,95200.94
2022-10-14T11:25:51.883Z,95192.91
2022-10-14T11:28:30.253Z,95205.28
2022-10-14T11:31:08.443Z,95192.28
2022-10-14T11:33:47.211Z,95188.59
2022-10-14T11:36:40.187Z,95183.06
2022-10-14T11:39:24.659Z,95173.81
2022-10-14T11:42:13.777Z,95166.94
2022-10-14T11:44:43.240Z,95175.16
2022-10-14T11:47:22.688Z,95168.91
2022-10-14T11:49:59.930Z,95169.66
2022-10-14T11:52:31.647Z,95166.09
2022-10-14T11:55:29.088Z,95161.94
2022-10-14T11:58:02.644Z,95149.38
2022-10-14T12:00:52.050Z,95165.81
2022-10-14T12:03:36.678Z,95158.59
2022-10-14T12:06:12.920Z,95164.53
2022-10-14T12:08:55.516Z,95155.22
2022-10-14T12:11:35.129Z,95160.09
2022-10-14T12:14:07.682Z,95149.63
2022-10-14T12:16:34.534Z,95149.94
2022-10-14T12:19:01.802Z,95166.47
2022-10-14T12:21:56.184Z,95156.59
2022-10-14T12:24:31.355Z,95164.91
2022-10-14T12:27:01.886Z,95162.28
2022-10-14T12:29:32.693Z,95165.31
2022-10-14T12:32:06.412Z,95158.53
2022-10-14T12:34:36.095Z,95167.34
2022-10-14T12:37:28.759Z,95174.16
2022-10-14T12:40:07.093Z,95164.94
2022-10-14T12:42:57.921Z,95165.31
2022-10-14T12:45:26.811Z,95166.88
2022-10-14T12:48:15.492Z,95166.34
2022-10-14T12:50:48.009Z,95158.41
2022-10-14T12:53:26.833Z,95157.88
2022-10-14T12:56:02.374Z,95153.00
2022-10-14T12:58:32.000Z,95153.66
2022-10-14T13:01:03.263Z,95153.72
2022-10-14T13:03:42.366Z,95159.53
2022-10-14T13:06:41.108Z,95162.44
2022-10-14T13:09:15.140Z,95160.19
2022-10-14T13:12:04.942Z,95153.44
2022-10-14T13:14:59.522Z,95153.97
2022-10-14T13:17:46.684Z,95149.53
2022-10-14T13:20:35.303Z,95146.75
2022-10-14T13:23:31.535Z,95161.19
2022-10-14T13:26:34.989Z,95147.72
2022-10-14T13:29:16.379Z,95160.03
2022-10-14T13:32:01.799Z,95159.53
2022-10-14T13:34:43.841Z,95160.09
2022-10-14T13:37:32.171Z,95154.94
2022-10-14T13:40:08.847Z,95144.56
2022-10-14T13:42:39.618Z,95151.41
2022-10-14T13:45:16.989Z,95154.25
2022-10-14T13:47:48.785Z,95159.53
2022-10-14T13:50:25.744Z,95158.47
2022-10-14T13:52:57.818Z,95164.44
2022-10-14T13:55:25.911Z,95153.72
2022-10-14T13:58:15.900Z,95159.22
2022-10-14T14:00:57.376Z,95153.94
2022-10-14T14:03:34.352Z,95159.81
2022-10-14T14:06:03.197Z,95161.03
2022-10-14T14:08:40.185Z,95170.66
2022-10-14T14:11:17.770Z,95162.06
2022-10-14T14:13:59.234Z,95159.84
2022-10-14T14:17:03.015Z,95165.44
2022-10-14T14:19:37.895Z,95162.63
2022-10-14T14:22:14.852Z,95157.84
2022-10-14T14:24:41.930Z,95157.28
2022-10-14T14:27:26.709Z,95167.38
2022-10-14T14:29:55.204Z,95176.81
2022-10-14T14:32:28.630Z,95165.84
2022-10-14T14:34:56.141Z,95175.19
2022-10-14T14:40:30.077Z,95179.00
2022-10-14T14:43:03.294Z,95179.88
2022-10-14T14:45:42.675Z,95187.63
2022-10-14T14:48:13.892Z,95185.53
2022-10-14T14:50:44.186Z,95179.75
2022-10-14T14:53:11.895Z,95191.84
2022-10-14T14:55:44.846Z,95194.53
2022-10-14T14:58:30.103Z,95198.91
2022-10-14T15:00:57.463Z,95200.66
2022-10-14T15:03:27.219Z,95196.53
2022-10-14T15:06:05.938Z,95200.31
2022-10-14T15:08:36.780Z,95199.97
2022-10-14T15:11:04.136Z,95204.19
2022-10-14T15:13:49.221Z,95203.78
2022-10-14T15:16:42.230Z,95198.00
2022-10-14T15:19:20.022Z,95200.88
2022-10-14T15:22:16.900Z,95196.84
2022-10-14T15:25:03.692Z,95203.88
2022-10-14T15:27:35.424Z,95205.16
2022-10-14T15:30:17.672Z,95204.25
2022-10-14T15:32:44.896Z,95180.13
2022-10-14T15:35:17.334Z,95200.16
2022-10-14T15:37:44.521Z,95187.16
2022-10-14T15:40:17.695Z,95205.19
2022-10-14T15:42:46.322Z,95203.31
2022-10-14T15:45:14.968Z,95189.06
2022-10-14T15:47:42.225Z,95194.69
2022-10-14T15:50:19.576Z,95202.38
2022-10-14T15:52:56.911Z,95203.13
2022-10-14T15:55:30.071Z,95210.94
2022-10-14T15:57:57.323Z,95205.00
2022-10-14T16:00:24.671Z,95211.72
2022-10-14T16:02:58.448Z,95216.13
2022-10-14T16:05:29.658Z,95214.47
2022-10-14T16:07:57.463Z,95216.50
2022-10-14T16:10:25.002Z,95218.75
2022-10-14T16:12:51.992Z,95220.22
2022-10-14T16:15:44.550Z,95211.50
2022-10-14T16:18:11.519Z,95211.69
2022-10-14T16:20:38.483Z,95217.50
2022-10-14T16:23:05.438Z,95198.72
2022-10-14T16:25:43.562Z,95213.63
2022-10-14T16:28:13.484Z,95211.56
2022-10-14T16:30:48.740Z,95214.06
2022-10-14T16:33:21.580Z,95210.91
2022-10-14T16:35:53.883Z,95215.03
2022-10-14T16:38:21.498Z,95217.38
2022-10-14T16:40:59.449Z,95215.84
2022-10-14T16:43:28.397Z,95203.00
2022-10-14T16:45:59.869Z,95217.88
2022-10-14T16:48:28.023Z,95216.09
2022-10-14T16:50:55.361Z,95215.84
2022-10-14T16:53:48.831Z,95216.41
2022-10-14T16:56:39.209Z,95209.09
2022-10-14T16:59:08.536Z,95218.91
2022-10-14T17:01:35.494Z,95217.75
2022-10-14T17:04:03.660Z,95219.75
2022-10-14T17:06:30.599Z,95223.22
2022-10-14T17:08:57.591Z,95221.69
2022-10-14T17:11:27.310Z,95214.88
2022-10-14T17:13:57.474Z,95229.97
2022-10-14T17:16:24.774Z,95205.94
2022-10-14T17:18:52.108Z,95221.06
2022-10-14T17:21:20.186Z,95218.38
2022-10-14T17:23:47.239Z,95227.41
2022-10-14T17:26:18.313Z,95216.34
2022-10-14T17:28:47.060Z,95208.84
2022-10-14T17:31:22.600Z,95217.09
2022-10-14T17:33:50.519Z,95203.78
2022-10-14T17:36:30.625Z,95213.88
2022-10-14T17:38:58.667Z,95219.28
2022-10-14T17:41:28.196Z,95224.94
2022-10-14T17:43:57.376Z,95227.03
2022-10-14T17:46:27.146Z,95216.44
2022-10-14T17:48:56.492Z,95224.03
2022-10-14T17:51:25.336Z,95220.94
2022-10-14T17:53:53.864Z,95229.78
2022-10-14T17:56:21.032Z,95231.88
2022-10-14T17:58:51.082Z,95229.25
2022-10-14T18:01:17.963Z,95239.66
2022-10-14T18:03:45.318Z,95226.13
2022-10-14T18:06:19.791Z,95233.38
2022-10-14T18:08:50.753Z,95226.25
2022-10-14T18:11:19.063Z,95229.16
2022-10-14T18:13:50.926Z,95235.53
2022-10-14T18:16:17.975Z,95239.78
2022-10-14T18:18:46.217Z,95236.47
2022-10-14T18:21:15.050Z,95230.75
2022-10-14T18:23:41.914Z,95241.00
2022-10-14T18:26:16.587Z,95239.22
2022-10-14T18:28:46.213Z,95231.38
2022-10-14T18:31:15.787Z,95230.84
2022-10-14T18:33:43.642Z,95228.31
2022-10-14T18:36:16.673Z,95230.44
2022-10-14T18:38:51.597Z,95223.91
2022-10-14T18:41:19.941Z,95224.50
2022-10-14T18:43:46.954Z,95233.81
2022-10-14T18:46:22.211Z,95221.16
2022-10-14T18:48:51.245Z,95240.44
2022-10-14T18:51:20.233Z,95244.69
2022-10-14T18:53:48.349Z,95241.09
2022-10-14T18:56:21.510Z,95245.41
2022-10-14T18:58:52.972Z,95248.53
2022-10-14T19:01:20.316Z,95248.63
2022-10-14T19:03:48.068Z,95251.75
2022-10-14T19:06:15.282Z,95253.69
2022-10-14T19:08:42.941Z,95258.25
2022-10-14T19:11:21.030Z,95255.13
2022-10-14T19:13:50.188Z,95258.66
2022-10-14T19:16:27.648Z,95267.31
2022-10-14T19:19:04.446Z,95266.72
2022-10-14T19:21:32.220Z,95269.28
2022-10-14T19:24:00.971Z,95273.81
2022-10-14T19:26:31.637Z,95262.81
2022-10-14T19:29:00.349Z,95270.25
2022-10-14T19:31:30.036Z,95276.38
2022-10-14T19:33:59.675Z,95273.41
2022-10-14T19:36:27.291Z,95279.06
2022-10-14T19:38:58.878Z,95270.63
2022-10-14T19:41:28.164Z,95277.78
2022-10-14T19:43:57.047Z,95274.75
2022-10-14T19:46:27.523Z,95290.50
2022-10-14T19:48:59.355Z,95295.41
2022-10-14T19:51:27.217Z,95291.44
2022-10-14T19:53:55.044Z,95297.56
2022-10-14T19:56:22.877Z,95301.78
2022-10-14T19:58:52.961Z,95305.41
2022-10-14T20:01:22.054Z,95305.59
2022-10-14T20:03:49.021Z,95312.00
2022-10-14T20:06:15.824Z,95308.16
2022-10-14T20:08:43.939Z,95305.22
2022-10-14T20:11:13.233Z,95312.06
2022-10-14T20:13:40.200Z,95309.56
2022-10-14T20:16:09.475Z,95297.72
2022-10-14T20:18:37.067Z,95304.63
2022-10-14T20:21:06.433Z,95306.31
2022-10-14T20:23:35.176Z,95305.75
2022-10-14T20:26:22.349Z,95305.59
2022-10-14T20:28:50.007Z,95301.63
2022-10-14T20:31:19.893Z,95294.56
2022-10-14T20:33:47.072Z,95303.63
2022-10-14T20:36:16.840Z,95296.78
2022-10-14T20:38:44.220Z,95300.50
2022-10-14T20:41:14.016Z,95296.47
2022-10-14T20:43:42.553Z,95297.16
2022-10-14T20:46:10.017Z,95306.19
2022-10-14T20:48:39.663Z,95306.00
2022-10-14T20:51:09.013Z,95298.03
2022-10-14T20:53:35.937Z,95293.81
2022-10-14T20:56:05.852Z,95289.66
2022-10-14T20:58:33.044Z,95297.72
2022-10-14T21:01:08.872Z,95299.88
2022-10-14T21:03:36.223Z,95298.72
2022-10-14T21:06:08.982Z,95292.72
2022-10-14T21:08:36.575Z,95293.50
2022-10-14T21:11:10.514Z,95300.28
2022-10-14T21:13:42.947Z,95295.75
2022-10-14T21:16:21.330Z,95296.53
2022-10-14T21:18:55.075Z,95289.47
2022-10-14T21:21:29.383Z,95297.63
2022-10-14T21:23:58.197Z,95298.13
2022-10-14T21:26:25.605Z,95298.72
2022-10-14T21:28:52.564Z,95290.56
2022-10-14T21:31:20.475Z,95284.25
2022-10-14T21:33:48.623Z,95299.19
2022-10-14T21:36:16.716Z,95291.53
2022-10-14T21:38:43.521Z,95294.19
2022-10-14T21:41:11.276Z,95286.72
2022-10-14T21:43:38.874Z,95305.28
2022-10-14T21:46:08.369Z,95301.28
2022-10-14T21:48:35.121Z,95310.22
2022-10-14T21:51:04.089Z,95317.47
2022-10-14T21:53:32.108Z,95321.09
2022-10-14T21:55:59.228Z,95311.69
2022-10-14T21:58:26.941Z,95325.50
2022-10-14T22:01:08.570Z,95323.06
2022-10-14T22:03:36.841Z,95315.38
2022-10-14T22:06:06.822Z,95290.13
2022-10-14T22:08:45.642Z,95312.66
2022-10-14T22:11:31.211Z,95315.97
2022-10-14T22:13:59.661Z,95311.84
2022-10-14T22:16:28.894Z,95311.84
2022-10-14T22:18:59.017Z,95307.78
2022-10-14T22:21:28.655Z,95328.91
2022-10-14T22:23:55.446Z,95317.94
2022-10-14T22:26:23.829Z,95316.56
2022-10-14T22:29:13.882Z,95320.13
2022-10-14T22:31:40.857Z,95325.59
2022-10-14T22:34:10.006Z,95312.66
2022-10-14T22:36:36.748Z,95325.13
2022-10-14T22:39:07.498Z,95331.13
2022-10-14T22:41:35.866Z,95313.56
2022-10-14T22:44:04.478Z,95325.44
2022-10-14T22:46:33.234Z,95323.25
2022-10-14T22:49:01.942Z,95332.44
2022-10-14T22:51:35.287Z,95329.91
2022-10-14T22:54:02.825Z,95322.53
2022-10-14T22:56:31.237Z,95325.97
2022-10-14T22:59:00.847Z,95325.63
2022-10-14T23:01:28.812Z,95331.53
2022-10-14T23:03:56.600Z,95328.47
2022-10-14T23:06:24.080Z,95317.47
2022-10-14T23:08:51.209Z,95327.59
2022-10-14T23:11:20.596Z,95325.34
2022-10-14T23:13:48.066Z,95330.22
2022-10-14T23:16:17.996Z,95325.78
2022-10-14T23:18:45.619Z,95324.19
2022-10-14T23:21:17.498Z,95318.28
2022-10-14T23:23:45.430Z,95323.03
2022-10-14T23:26:16.036Z,95325.19
2022-10-14T23:28:43.399Z,95327.19
2022-10-14T23:31:13.853Z,95333.84
2022-10-14T23:33:41.614Z,95326.44
2022-10-14T23:36:10.994Z,95334.00
2022-10-14T23:38:38.860Z,95330.41
2022-10-14T23:41:07.362Z,95319.16
2022-10-14T23:43:34.651Z,95340.25
2022-10-14T23:46:02.003Z,95329.88
2022-10-14T23:48:29.127Z,95330.53
2022-10-14T23:50:56.520Z,95340.41
2022-10-14T23:53:26.322Z,95342.56
2022-10-14T23:55:53.885Z,95334.53
2022-10-14T23:58:20.752Z,95335.53
